Time;durP1;ratioP1;P1;durP2;ratioP2;P2;SDS_P1;SDS_P2;PMS_P1;PMS_P2;Temp;Humidity;BMP_temperature;BMP_pressure;BME280_temperature;BME280_humidity;BME280_pressure;Samples;Min_cycle;Max_cycle;Signal;HPM_P1;HPM_P2
2022/01/10 00:01:49;;;;;;;;;;;;;;;0.75;78.96;99729.70;1702771;82;20134;-80
2022/01/10 00:04:15;;;;;;;;;;;;;;;0.83;78.79;99726.10;1714076;82;20525;-79
2022/01/10 00:06:40;;;;;;;;;;;;;;;0.86;78.90;99732.39;1703435;82;21198;-77
2022/01/10 00:09:06;;;;;;;;;;;;;;;0.82;79.22;99737.42;1699459;82;20489;-81
2022/01/10 00:11:31;;;;;;;;;;;;;;;0.86;79.33;99737.11;1704314;83;20150;-77
2022/01/10 00:13:57;;;;;;;;;;;;;;;0.94;79.47;99736.59;1702625;81;20166;-77
2022/01/10 00:16:23;;;;;;;;;;;;;;;0.93;79.63;99731.02;1709673;81;20132;-78
2022/01/10 00:18:49;;;;;;;;;;;;;;;0.98;79.71;99741.95;1700903;81;21025;-79
2022/01/10 00:21:15;;;;;;;;;;;;;;;0.86;80.38;99749.29;1707287;82;20166;-78
2022/01/10 00:23:41;;;;;;;;;;;;;;;0.52;82.38;99748.95;1701319;81;20507;-79
2022/01/10 00:26:07;;;;;;;;;;;;;;;0.59;82.05;99748.91;1700824;82;20174;-79
2022/01/10 00:28:33;;;;;;;;;;;;;;;0.50;83.24;99746.92;1708805;83;20183;-79
2022/01/10 00:30:58;;;;;;;;;;;;;;;0.52;83.50;99754.14;1707272;83;21082;-79
2022/01/10 00:33:24;;;;;;;;;;;;;;;0.83;82.17;99753.39;1704500;81;20264;-78
2022/01/10 00:35:49;;;;;;;;;;;;;;;0.70;82.06;99754.22;1707678;82;20444;-82
2022/01/10 00:38:15;;;;;;;;;;;;;;;0.96;81.50;99764.61;1701714;81;20163;-79
2022/01/10 00:40:42;;;;;;;;;;;;;;;0.97;81.49;99766.28;1702441;83;20138;-78
2022/01/10 00:43:16;;;;;;;;;;;;;;;1.04;81.15;99762.34;1705101;83;21335;-78
2022/01/10 00:45:36;;;;;;;;;;;;;;;0.90;81.42;99772.82;1708499;81;20117;-79
2022/01/10 00:48:02;;;;;;;;;;;;;;;0.85;81.76;99778.81;1705151;81;20185;-78
2022/01/10 00:50:28;;;;;;;;;;;;;;;0.84;82.03;99784.48;1706412;81;21147;-78
2022/01/10 00:52:54;;;;;;;;;;;;;;;0.81;82.12;99786.44;1704712;82;20136;-83
2022/01/10 00:55:20;;;;;;;;;;;;;;;0.89;82.05;99790.20;1702634;81;21071;-78
2022/01/10 00:57:45;;;;;;;;;;;;;;;0.54;83.17;99789.94;1705338;81;20198;-80
2022/01/10 01:00:12;;;;;;;;;;;;;;;0.33;84.84;99793.02;1701056;81;20170;-79
2022/01/10 01:02:38;;;;;;;;;;;;;;;0.23;85.28;99794.52;1712915;81;20152;-80
2022/01/10 01:05:07;;;;;;;;;;;;;;;0.38;85.02;99798.38;1706813;82;20741;-78
2022/01/10 01:07:33;;;;;;;;;;;;;;;0.55;84.51;99809.80;1714450;81;21953;-79
2022/01/10 01:10:25;;;;;;;;;;;;;;;0.66;84.26;99810.39;1699829;82;20246;-80
2022/01/10 01:12:44;;;;;;;;;;;;;;;0.71;83.95;99818.27;1703884;83;20203;-80
2022/01/10 01:15:17;;;;;;;;;;;;;;;0.89;83.20;99820.56;1695721;83;20138;-80
2022/01/10 01:17:35;;;;;;;;;;;;;;;0.92;82.92;99829.46;1702433;83;20182;-79
2022/01/10 01:25:10;;;;;;;;;;;;;;;0.97;82.95;99844.28;1704139;83;20200;-78
2022/01/10 01:27:36;;;;;;;;;;;;;;;1.07;82.58;99845.34;1699236;83;20181;-78
2022/01/10 01:30:03;;;;;;;;;;;;;;;0.77;83.43;99844.30;1705086;82;20517;-80
2022/01/10 01:32:29;;;;;;;;;;;;;;;0.60;84.35;99846.70;1699295;82;21076;-79
2022/01/10 01:35:01;;;;;;;;;;;;;;;0.42;85.04;99847.88;1705093;82;20160;-82
2022/01/10 01:37:22;;;;;;;;;;;;;;;0.29;85.96;99856.45;1701894;82;20140;-79
2022/01/10 01:39:47;;;;;;;;;;;;;;;0.38;85.83;99852.45;1705303;83;20138;-78
2022/01/10 01:44:52;;;;;;;;;;;;;;;0.31;86.10;99852.02;1648322;83;20134;-78
2022/01/10 01:47:18;;;;;;;;;;;;;;;0.21;86.64;99850.93;1710077;81;20158;-79
2022/01/10 01:49:43;;;;;;;;;;;;;;;0.49;85.80;99856.96;1709076;81;20485;-80
2022/01/10 01:52:09;;;;;;;;;;;;;;;0.64;85.20;99863.77;1705278;81;20170;-76
2022/01/10 01:54:34;;;;;;;;;;;;;;;0.61;85.13;99856.16;1711212;81;20170;-77
2022/01/10 01:57:00;;;;;;;;;;;;;;;0.56;85.54;99851.75;1703658;82;21079;-77
2022/01/10 01:59:26;;;;;;;;;;;;;;;0.52;86.13;99851.56;1702011;81;20362;-76
2022/01/10 02:01:51;;;;;;;;;;;;;;;0.37;87.34;99852.55;1702874;83;20174;-77
2022/01/10 02:04:17;;;;;;;;;;;;;;;0.33;87.50;99854.05;1708960;81;20162;-77
2022/01/10 02:06:43;;;;;;;;;;;;;;;0.67;86.67;99858.37;1707729;81;20238;-76
2022/01/10 02:09:08;;;;;;;;;;;;;;;0.64;86.62;99858.56;1704402;83;21094;-76
2022/01/10 02:11:34;;;;;;;;;;;;;;;0.57;86.90;99867.68;1704112;81;20174;-76
2022/01/10 02:14:00;;;;;;;;;;;;;;;0.67;86.56;99867.46;1701015;83;20185;-76
2022/01/10 02:16:42;;;;;;;;;;;;;;;0.43;87.35;99870.34;1708016;83;20238;-76
2022/01/10 02:18:59;;;;;;;;;;;;;;;0.56;87.28;99866.03;1706810;83;20196;-77
2022/01/10 02:21:25;;;;;;;;;;;;;;;0.74;86.41;99868.36;1700776;83;21139;-79
2022/01/10 02:23:50;;;;;;;;;;;;;;;0.75;85.97;99870.86;1708209;83;20491;-77
2022/01/10 02:26:16;;;;;;;;;;;;;;;0.70;85.97;99871.16;1706387;83;20152;-77
2022/01/10 02:28:42;;;;;;;;;;;;;;;0.81;85.78;99877.41;1704601;83;20668;-77
2022/01/10 02:31:08;;;;;;;;;;;;;;;0.97;85.28;99888.47;1706671;83;20168;-78
2022/01/10 02:33:33;;;;;;;;;;;;;;;0.99;84.71;99893.09;1703454;83;21858;-80
2022/01/10 02:36:09;;;;;;;;;;;;;;;1.19;84.25;99907.86;1706170;81;20159;-78
2022/01/10 02:38:27;;;;;;;;;;;;;;;0.95;84.45;99907.25;1706477;83;20592;-78
2022/01/10 02:40:54;;;;;;;;;;;;;;;0.88;85.03;99921.09;1704840;83;20156;-80
2022/01/10 02:43:20;;;;;;;;;;;;;;;0.87;85.50;99919.89;1698851;82;20470;-79
2022/01/10 02:45:46;;;;;;;;;;;;;;;1.12;85.06;99919.59;1703216;83;21016;-77
2022/01/10 02:48:12;;;;;;;;;;;;;;;1.15;84.82;99924.59;1698324;83;20622;-81
2022/01/10 02:50:37;;;;;;;;;;;;;;;1.24;84.73;99923.98;1699101;82;20169;-79
2022/01/10 02:53:03;;;;;;;;;;;;;;;1.36;84.30;99924.47;1701808;83;20158;-78
2022/01/10 02:55:28;;;;;;;;;;;;;;;1.45;83.99;99920.91;1699955;83;20196;-78
2022/01/10 02:57:54;;;;;;;;;;;;;;;1.54;83.78;99926.77;1709632;81;21166;-82
2022/01/10 03:00:22;;;;;;;;;;;;;;;1.55;83.67;99936.24;1705739;81;20130;-78
2022/01/10 03:02:50;;;;;;;;;;;;;;;1.54;83.56;99931.97;1709920;81;20212;-77
2022/01/10 03:05:16;;;;;;;;;;;;;;;1.60;83.46;99935.45;1700852;81;20099;-79
2022/01/10 03:07:42;;;;;;;;;;;;;;;1.77;83.11;99937.77;1702081;81;20225;-78
2022/01/10 03:10:08;;;;;;;;;;;;;;;1.67;83.22;99946.30;1705927;81;21493;-77
2022/01/10 03:12:34;;;;;;;;;;;;;;;1.62;83.58;99945.31;1699857;83;20225;-79
2022/01/10 03:15:00;;;;;;;;;;;;;;;1.81;83.21;99954.00;1696096;83;20175;-78
2022/01/10 03:17:26;;;;;;;;;;;;;;;1.78;83.16;99952.42;1705144;83;20249;-77
2022/01/10 03:19:51;;;;;;;;;;;;;;;1.85;83.01;99953.31;1706437;81;20183;-81
2022/01/10 03:22:17;;;;;;;;;;;;;;;2.02;82.77;99959.97;1701737;81;21167;-79
2022/01/10 03:24:42;;;;;;;;;;;;;;;2.00;82.45;99970.48;1704170;83;20600;-78
2022/01/10 03:27:08;;;;;;;;;;;;;;;1.78;83.05;99964.63;1703949;83;20196;-82
2022/01/10 03:29:33;;;;;;;;;;;;;;;1.64;83.90;99973.36;1708415;81;20142;-78
2022/01/10 03:32:01;;;;;;;;;;;;;;;1.80;83.75;99977.05;1703637;83;20463;-78
2022/01/10 03:34:27;;;;;;;;;;;;;;;1.79;83.78;99980.14;1703120;81;20148;-76
2022/01/10 03:36:52;;;;;;;;;;;;;;;1.87;83.45;99991.81;1699850;83;20189;-79
2022/01/10 03:39:18;;;;;;;;;;;;;;;1.56;84.29;99989.97;1706238;83;20521;-77
2022/01/10 03:41:43;;;;;;;;;;;;;;;1.89;83.61;100001.65;1708385;81;20426;-81
2022/01/10 03:44:09;;;;;;;;;;;;;;;1.49;84.79;99998.66;1700785;83;20599;-77
2022/01/10 03:46:35;;;;;;;;;;;;;;;1.28;86.24;100006.09;1700802;81;21160;-77
2022/01/10 03:49:01;;;;;;;;;;;;;;;1.32;86.24;100010.17;1703813;83;20163;-78
2022/01/10 03:51:27;;;;;;;;;;;;;;;1.25;87.08;100006.30;1710534;81;20198;-77
2022/01/10 03:53:52;;;;;;;;;;;;;;;1.38;86.70;100011.52;1700491;83;20242;-77
2022/01/10 03:56:18;;;;;;;;;;;;;;;1.30;87.08;100021.13;1702861;83;20477;-76
2022/01/10 03:58:43;;;;;;;;;;;;;;;1.37;87.10;100021.11;1713879;81;21086;-77
2022/01/10 04:01:09;;;;;;;;;;;;;;;1.40;87.12;100023.51;1705127;81;20225;-76
2022/01/10 04:03:37;;;;;;;;;;;;;;;1.45;86.97;100027.59;1710430;83;20265;-77
2022/01/10 04:06:03;;;;;;;;;;;;;;;1.83;86.82;100025.50;1706493;81;20169;-77
2022/01/10 04:08:29;;;;;;;;;;;;;;;1.73;85.45;100027.41;1707252;83;20214;-76
2022/01/10 04:10:54;;;;;;;;;;;;;;;1.78;84.37;100027.10;1706671;83;21177;-78
2022/01/10 04:13:20;;;;;;;;;;;;;;;2.10;83.98;100042.34;1701792;83;20181;-76
2022/01/10 04:15:46;;;;;;;;;;;;;;;1.70;84.13;100038.03;1715623;81;20195;-76
2022/01/10 04:18:12;;;;;;;;;;;;;;;1.52;84.84;100041.84;1694840;83;20139;-76
2022/01/10 04:20:38;;;;;;;;;;;;;;;1.69;84.52;100046.77;1705045;83;20174;-77
2022/01/10 04:23:03;;;;;;;;;;;;;;;1.48;84.96;100053.41;1700714;81;21154;-75
2022/01/10 04:25:29;;;;;;;;;;;;;;;1.37;85.82;100064.03;1707822;83;20146;-77
2022/01/10 04:27:54;;;;;;;;;;;;;;;1.33;85.24;100064.33;1700835;81;20171;-76
2022/01/10 04:30:20;;;;;;;;;;;;;;;1.30;85.12;100064.05;1710586;81;20181;-76
2022/01/10 04:32:46;;;;;;;;;;;;;;;1.31;84.97;100080.04;1705894;82;20646;-77
2022/01/10 04:35:11;;;;;;;;;;;;;;;1.47;84.94;100079.05;1704061;83;21127;-76
2022/01/10 04:37:37;;;;;;;;;;;;;;;1.41;84.85;100085.03;1704290;83;20292;-76
2022/01/10 04:40:04;;;;;;;;;;;;;;;1.61;84.67;100086.78;1703576;81;20711;-77
2022/01/10 04:42:29;;;;;;;;;;;;;;;1.32;84.32;100088.22;1701247;81;20200;-76
2022/01/10 04:44:55;;;;;;;;;;;;;;;1.26;84.52;100093.81;1705241;81;20921;-77
2022/01/10 04:47:21;;;;;;;;;;;;;;;1.88;83.76;100089.36;1698830;83;21085;-77
2022/01/10 04:52:29;;;;;;;;;;;;;;;2.36;80.45;100087.43;1702129;81;20179;-76
2022/01/10 04:54:55;;;;;;;;;;;;;;;2.48;80.18;100094.41;1702331;81;20197;-77
2022/01/10 04:57:20;;;;;;;;;;;;;;;2.60;80.03;100097.95;1702887;83;20726;-79
2022/01/10 04:59:46;;;;;;;;;;;;;;;2.70;79.18;100098.14;1702107;83;21098;-78
2022/01/10 05:02:11;;;;;;;;;;;;;;;2.03;81.99;100093.99;1703049;81;20507;-77
2022/01/10 05:04:37;;;;;;;;;;;;;;;1.93;82.17;100093.78;1710911;83;20136;-77
2022/01/10 05:07:03;;;;;;;;;;;;;;;1.94;82.84;100101.97;1700191;83;20428;-78
2022/01/10 05:09:28;;;;;;;;;;;;;;;2.03;82.55;100108.31;1706627;83;20155;-76
2022/01/10 05:11:55;;;;;;;;;;;;;;;2.12;82.33;100115.52;1696200;81;21219;-77
2022/01/10 05:14:21;;;;;;;;;;;;;;;2.16;82.01;100117.47;1694825;83;20127;-76
2022/01/10 05:16:47;;;;;;;;;;;;;;;2.00;81.97;100117.64;1694228;83;20252;-76
2022/01/10 05:19:12;;;;;;;;;;;;;;;2.73;80.11;100122.70;1692390;84;20178;-78
2022/01/10 05:21:38;;;;;;;;;;;;;;;2.32;80.24;100117.27;1693922;84;20523;-78
2022/01/10 05:24:04;;;;;;;;;;;;;;;3.10;77.94;100125.82;1693622;83;21156;-79
2022/01/10 05:26:30;;;;;;;;;;;;;;;3.09;77.69;100119.75;1692471;84;20186;-79
2022/01/10 05:28:55;;;;;;;;;;;;;;;2.31;80.68;100127.31;1694593;84;20471;-77
2022/01/10 05:31:21;;;;;;;;;;;;;;;2.72;79.50;100136.69;1694425;83;20122;-77
2022/01/10 05:33:48;;;;;;;;;;;;;;;2.38;79.78;100135.53;1693620;83;20224;-77
2022/01/10 05:36:13;;;;;;;;;;;;;;;2.15;80.79;100147.88;1693392;84;21131;-78
2022/01/10 05:38:39;;;;;;;;;;;;;;;1.98;81.94;100138.57;1692778;84;20150;-77
2022/01/10 05:41:04;;;;;;;;;;;;;;;1.40;84.61;100151.00;1693512;84;20162;-77
2022/01/10 05:43:30;;;;;;;;;;;;;;;1.74;84.22;100148.84;1693726;83;20112;-77
2022/01/10 05:45:55;;;;;;;;;;;;;;;1.87;83.28;100166.27;1692995;83;20442;-78
2022/01/10 05:48:25;;;;;;;;;;;;;;;1.65;84.29;100170.70;1693066;83;21283;-77
2022/01/10 05:50:49;;;;;;;;;;;;;;;1.26;86.20;100179.66;1692887;83;20495;-79
2022/01/10 05:53:15;;;;;;;;;;;;;;;1.45;85.91;100186.31;1694231;84;20229;-78
2022/01/10 05:55:40;;;;;;;;;;;;;;;2.44;81.89;100186.80;1692886;84;20766;-79
2022/01/10 05:58:06;;;;;;;;;;;;;;;2.48;80.81;100184.33;1693151;83;20177;-78
2022/01/10 06:00:32;;;;;;;;;;;;;;;2.40;80.87;100187.93;1693541;83;21158;-77
2022/01/10 06:02:57;;;;;;;;;;;;;;;2.43;80.39;100190.33;1694015;84;20205;-78
2022/01/10 06:05:29;;;;;;;;;;;;;;;2.10;81.68;100192.11;1694207;83;20452;-78
2022/01/10 06:07:51;;;;;;;;;;;;;;;2.18;81.84;100199.43;1693141;83;20186;-78
2022/01/10 06:10:16;;;;;;;;;;;;;;;2.34;81.12;100200.06;1693638;83;20218;-77
2022/01/10 06:12:42;;;;;;;;;;;;;;;2.38;81.08;100201.54;1695889;83;21158;-78
2022/01/10 06:15:07;;;;;;;;;;;;;;;2.46;80.67;100209.67;1698266;81;20488;-77
2022/01/10 06:17:33;;;;;;;;;;;;;;;2.38;80.95;100211.97;1698520;83;20248;-78
2022/01/10 06:19:59;;;;;;;;;;;;;;;2.17;81.50;100217.29;1699516;83;20766;-78
2022/01/10 06:22:25;;;;;;;;;;;;;;;2.20;81.71;100224.91;1701760;81;20183;-77
2022/01/10 06:24:50;;;;;;;;;;;;;;;2.14;82.20;100236.10;1705330;81;21111;-77
2022/01/10 06:27:16;;;;;;;;;;;;;;;2.21;82.18;100244.34;1698945;81;20158;-79
2022/01/10 06:29:42;;;;;;;;;;;;;;;2.35;81.47;100247.34;1701275;81;20755;-78
2022/01/10 06:32:07;;;;;;;;;;;;;;;2.32;81.42;100250.16;1697969;83;20205;-79
2022/01/10 06:34:33;;;;;;;;;;;;;;;2.19;82.21;100258.39;1701110;83;20144;-78
2022/01/10 06:37:01;;;;;;;;;;;;;;;1.74;82.69;100265.13;1704816;81;21163;-78
2022/01/10 06:39:26;;;;;;;;;;;;;;;2.43;81.51;100271.61;1703540;81;20171;-82
2022/01/10 06:41:51;;;;;;;;;;;;;;;2.55;80.83;100270.80;1707954;83;20158;-78
2022/01/10 06:44:17;;;;;;;;;;;;;;;1.78;83.54;100283.55;1708965;83;21114;-77
2022/01/10 06:46:42;;;;;;;;;;;;;;;1.69;84.47;100286.25;1702183;81;20214;-77
2022/01/10 06:49:08;;;;;;;;;;;;;;;2.26;82.64;100290.47;1701071;83;21158;-77
2022/01/10 06:51:34;;;;;;;;;;;;;;;2.21;82.12;100299.53;1702785;81;20146;-79
2022/01/10 06:53:59;;;;;;;;;;;;;;;1.43;84.68;100303.03;1698879;83;20491;-76
2022/01/10 06:56:25;;;;;;;;;;;;;;;1.20;86.26;100308.80;1709959;81;20616;-78
2022/01/10 06:58:51;;;;;;;;;;;;;;;1.96;84.85;100317.55;1707519;83;20302;-77
2022/01/10 07:01:19;;;;;;;;;;;;;;;2.32;82.40;100312.70;1704083;83;21177;-81
2022/01/10 07:03:44;;;;;;;;;;;;;;;1.78;83.10;100320.83;1698362;83;20864;-77
2022/01/10 07:06:10;;;;;;;;;;;;;;;1.57;85.29;100324.75;1702503;83;20126;-77
2022/01/10 07:08:35;;;;;;;;;;;;;;;1.84;83.86;100330.51;1700133;81;20134;-80
2022/01/10 07:11:01;;;;;;;;;;;;;;;1.47;84.79;100332.77;1703379;81;20238;-78
2022/01/10 07:13:27;;;;;;;;;;;;;;;1.39;86.04;100333.23;1708466;81;21999;-79
2022/01/10 07:15:53;;;;;;;;;;;;;;;1.58;85.55;100336.37;1708101;81;20446;-78
2022/01/10 07:18:18;;;;;;;;;;;;;;;1.66;85.21;100341.11;1705310;81;20225;-78
2022/01/10 07:20:44;;;;;;;;;;;;;;;1.69;85.17;100347.91;1707027;83;20931;-78
2022/01/10 07:23:09;;;;;;;;;;;;;;;1.37;86.71;100355.44;1696960;83;20167;-80
2022/01/10 07:25:36;;;;;;;;;;;;;;;1.37;86.50;100359.34;1700856;83;21072;-78
2022/01/10 07:28:02;;;;;;;;;;;;;;;1.10;88.09;100353.17;1696682;83;20642;-78
2022/01/10 07:30:28;;;;;;;;;;;;;;;1.34;87.73;100364.73;1697989;83;20185;-81
2022/01/10 07:32:53;;;;;;;;;;;;;;;1.40;87.50;100366.96;1702478;83;20923;-77
2022/01/10 07:35:19;;;;;;;;;;;;;;;1.39;87.64;100377.47;1700802;83;20228;-78
2022/01/10 07:37:45;;;;;;;;;;;;;;;1.59;87.03;100376.27;1715782;81;22687;-77
2022/01/10 07:40:11;;;;;;;;;;;;;;;1.62;86.87;100382.59;1709891;82;20128;-78
2022/01/10 07:42:37;;;;;;;;;;;;;;;1.65;86.58;100381.10;1709673;83;20097;-78
2022/01/10 07:45:04;;;;;;;;;;;;;;;1.53;86.72;100385.75;1704872;81;20155;-77
2022/01/10 07:47:29;;;;;;;;;;;;;;;1.36;87.91;100395.39;1702027;83;20265;-78
2022/01/10 07:49:55;;;;;;;;;;;;;;;1.29;88.31;100395.84;1688839;83;21113;-77
2022/01/10 07:52:22;;;;;;;;;;;;;;;1.36;87.87;100395.39;1705333;81;20226;-77
2022/01/10 07:54:48;;;;;;;;;;;;;;;1.55;87.24;100395.59;1704952;81;20144;-78
2022/01/10 07:57:13;;;;;;;;;;;;;;;1.58;86.85;100408.42;1700728;83;20426;-78
2022/01/10 07:59:40;;;;;;;;;;;;;;;1.91;86.12;100404.70;1711882;81;21127;-80
2022/01/10 08:02:06;;;;;;;;;;;;;;;2.04;84.65;100410.01;1703525;83;21277;-77
2022/01/10 08:04:32;;;;;;;;;;;;;;;1.93;84.63;100407.59;1708010;83;20173;-81
2022/01/10 08:06:57;;;;;;;;;;;;;;;1.60;86.32;100409.16;1696815;83;20181;-78
2022/01/10 08:09:23;;;;;;;;;;;;;;;1.57;86.59;100423.66;1709228;81;21128;-79
2022/01/10 08:11:48;;;;;;;;;;;;;;;1.83;85.87;100417.36;1705519;81;20146;-80
2022/01/10 08:14:14;;;;;;;;;;;;;;;1.56;86.10;100418.09;1694583;83;21153;-77
2022/01/10 08:16:40;;;;;;;;;;;;;;;1.96;85.25;100430.84;1693659;83;20328;-77
2022/01/10 08:19:06;;;;;;;;;;;;;;;1.75;85.45;100432.97;1700916;83;20131;-78
2022/01/10 08:21:31;;;;;;;;;;;;;;;1.88;85.26;100433.08;1715005;82;20151;-78
2022/01/10 08:23:57;;;;;;;;;;;;;;;1.90;85.39;100439.50;1719357;81;20467;-77
2022/01/10 08:26:23;;;;;;;;;;;;;;;1.75;85.37;100444.69;1694549;83;21227;-77
2022/01/10 08:28:49;;;;;;;;;;;;;;;1.90;85.00;100448.14;1696197;83;21215;-76
2022/01/10 08:31:14;;;;;;;;;;;;;;;1.90;84.96;100452.52;1708456;83;20128;-77
2022/01/10 08:33:41;;;;;;;;;;;;;;;2.08;84.46;100459.22;1696651;83;20733;-79
2022/01/10 08:36:07;;;;;;;;;;;;;;;1.98;84.19;100458.09;1706900;82;20234;-77
2022/01/10 08:38:33;;;;;;;;;;;;;;;2.10;84.27;100466.46;1691947;83;21162;-78
2022/01/10 08:40:59;;;;;;;;;;;;;;;1.88;84.31;100472.59;1694772;83;20154;-76
2022/01/10 08:43:24;;;;;;;;;;;;;;;2.02;84.21;100480.43;1710136;83;20191;-77
2022/01/10 08:45:50;;;;;;;;;;;;;;;2.14;84.06;100484.89;1721550;81;20587;-77
2022/01/10 08:48:15;;;;;;;;;;;;;;;1.87;84.29;100492.59;1695602;83;20518;-77
2022/01/10 08:50:41;;;;;;;;;;;;;;;1.67;84.93;100498.98;1694339;83;21052;-77
2022/01/10 08:53:08;;;;;;;;;;;;;;;1.96;84.52;100499.03;1712158;81;20996;-77
2022/01/10 08:55:33;;;;;;;;;;;;;;;2.13;83.14;100498.84;1694626;83;20197;-77
2022/01/10 08:57:59;;;;;;;;;;;;;;;1.79;83.89;100503.94;1701286;82;20212;-77
2022/01/10 09:00:26;;;;;;;;;;;;;;;1.84;83.90;100504.97;1724910;82;20215;-77
2022/01/10 09:02:52;;;;;;;;;;;;;;;1.78;83.81;100510.89;1701340;81;21082;-80
2022/01/10 09:05:17;;;;;;;;;;;;;;;1.94;82.58;100502.17;1700027;83;20146;-78
2022/01/10 09:07:43;;;;;;;;;;;;;;;1.94;82.78;100515.19;1693984;83;20134;-79
2022/01/10 09:10:08;;;;;;;;;;;;;;;2.10;82.46;100516.44;1699310;81;20714;-81
2022/01/10 09:12:34;;;;;;;;;;;;;;;1.62;83.90;100527.06;1715122;82;20271;-78
2022/01/10 09:14:59;;;;;;;;;;;;;;;1.53;84.49;100527.59;1694060;83;21120;-77
2022/01/10 09:17:25;;;;;;;;;;;;;;;1.51;84.91;100526.82;1699696;83;20167;-77
2022/01/10 09:19:51;;;;;;;;;;;;;;;2.04;82.43;100528.05;1699031;83;20134;-78
2022/01/10 09:22:16;;;;;;;;;;;;;;;1.91;82.93;100536.20;1701301;83;20654;-79
2022/01/10 09:24:46;;;;;;;;;;;;;;;2.08;82.11;100536.06;1721901;81;20931;-78
2022/01/10 09:27:09;;;;;;;;;;;;;;;2.19;81.72;100541.94;1717270;82;20611;-77
2022/01/10 09:29:35;;;;;;;;;;;;;;;2.15;81.31;100541.26;1707714;83;20155;-78
2022/01/10 09:32:00;;;;;;;;;;;;;;;2.36;80.88;100543.48;1702231;81;20163;-78
2022/01/10 09:34:26;;;;;;;;;;;;;;;2.39;80.77;100551.12;1706871;81;20159;-78
2022/01/10 09:36:51;;;;;;;;;;;;;;;2.35;80.57;100553.56;1719145;81;20213;-81
2022/01/10 09:39:19;;;;;;;;;;;;;;;2.43;80.23;100559.61;1695807;83;21215;-76
2022/01/10 09:41:45;;;;;;;;;;;;;;;2.54;79.77;100553.73;1708364;82;21070;-79
2022/01/10 09:44:11;;;;;;;;;;;;;;;2.60;79.23;100550.76;1696859;83;20182;-79
2022/01/10 09:46:37;;;;;;;;;;;;;;;2.51;79.34;100559.97;1694785;83;20134;-77
2022/01/10 09:49:03;;;;;;;;;;;;;;;2.48;79.30;100556.25;1704723;83;20479;-78
2022/01/10 09:51:29;;;;;;;;;;;;;;;2.50;79.17;100559.14;1707378;81;21076;-78
2022/01/10 09:53:55;;;;;;;;;;;;;;;2.57;78.76;100557.46;1715433;81;20792;-76
2022/01/10 09:56:21;;;;;;;;;;;;;;;2.57;78.38;100553.55;1708558;81;20172;-77
2022/01/10 09:58:47;;;;;;;;;;;;;;;2.65;77.93;100561.73;1703658;81;20171;-77
2022/01/10 10:01:14;;;;;;;;;;;;;;;2.52;77.81;100564.27;1716389;81;20142;-81
2022/01/10 10:03:45;;;;;;;;;;;;;;;2.46;78.40;100569.37;1707326;83;21163;-77
2022/01/10 10:06:10;;;;;;;;;;;;;;;2.63;77.71;100574.86;1704183;83;20211;-79
2022/01/10 10:08:37;;;;;;;;;;;;;;;2.46;78.02;100574.59;1711521;81;20127;-77
2022/01/10 10:11:03;;;;;;;;;;;;;;;2.24;78.86;100580.74;1698001;82;20348;-76
2022/01/10 10:13:29;;;;;;;;;;;;;;;2.36;78.71;100576.06;1694885;83;20870;-80
2022/01/10 10:15:55;;;;;;;;;;;;;;;2.17;79.24;100595.05;1700017;81;21085;-76
2022/01/10 10:18:21;;;;;;;;;;;;;;;2.18;79.43;100594.13;1704837;81;20551;-79
2022/01/10 10:20:46;;;;;;;;;;;;;;;2.45;78.58;100592.45;1699905;83;20111;-78
2022/01/10 10:23:15;;;;;;;;;;;;;;;2.38;78.50;100588.56;1706115;81;20163;-78
2022/01/10 10:25:51;;;;;;;;;;;;;;;2.14;78.69;100599.97;1705050;83;20183;-80
2022/01/10 10:28:17;;;;;;;;;;;;;;;2.21;79.17;100603.07;1702508;83;21276;-82
2022/01/10 10:30:42;;;;;;;;;;;;;;;2.54;77.20;100598.06;1695072;81;20306;-79
2022/01/10 10:33:14;;;;;;;;;;;;;;;2.64;76.64;100606.53;1706049;81;20166;-78
2022/01/10 10:35:39;;;;;;;;;;;;;;;2.57;75.52;100605.70;1709197;83;20180;-76
2022/01/10 10:38:05;;;;;;;;;;;;;;;2.53;75.35;100612.84;1702659;81;20158;-81
2022/01/10 10:40:30;;;;;;;;;;;;;;;2.68;74.75;100608.00;1708114;81;21107;-78
2022/01/10 10:42:57;;;;;;;;;;;;;;;2.70;74.13;100615.73;1709349;81;20757;-79
2022/01/10 10:45:24;;;;;;;;;;;;;;;2.77;74.33;100620.95;1690137;83;20207;-79
2022/01/10 10:47:50;;;;;;;;;;;;;;;2.80;72.56;100628.59;1703524;83;20225;-78
2022/01/10 10:50:17;;;;;;;;;;;;;;;2.82;72.55;100623.28;1663929;83;37503;-79
2022/01/10 10:52:42;;;;;;;;;;;;;;;2.86;72.54;100620.39;1703512;83;20967;-80
2022/01/10 10:55:10;;;;;;;;;;;;;;;3.03;72.13;100623.70;1705327;81;20167;-80
2022/01/10 10:57:36;;;;;;;;;;;;;;;3.06;71.59;100633.94;1703983;83;20204;-78
2022/01/10 11:00:04;;;;;;;;;;;;;;;2.91;70.88;100632.31;1703292;81;20831;-80
2022/01/10 11:02:30;;;;;;;;;;;;;;;2.97;70.66;100640.59;1703117;83;20168;-77
2022/01/10 11:04:56;;;;;;;;;;;;;;;2.70;70.42;100645.72;1705308;81;21150;-78
2022/01/10 11:07:23;;;;;;;;;;;;;;;2.56;70.79;100647.85;1687050;83;20139;-77
2022/01/10 11:09:49;;;;;;;;;;;;;;;2.42;70.63;100658.27;1702154;81;20128;-82
2022/01/10 11:12:17;;;;;;;;;;;;;;;2.50;70.55;100662.11;1702091;83;20218;-80
2022/01/10 11:14:43;;;;;;;;;;;;;;;2.67;69.78;100658.94;1705062;83;20191;-77
2022/01/10 11:17:17;;;;;;;;;;;;;;;2.54;69.22;100655.41;1712105;81;21351;-77
2022/01/10 11:19:43;;;;;;;;;;;;;;;2.76;69.19;100665.38;1664924;83;20178;-77
2022/01/10 11:22:09;;;;;;;;;;;;;;;2.72;68.54;100667.34;1702472;83;20134;-76
2022/01/10 11:24:50;;;;;;;;;;;;;;;2.79;67.62;100659.98;1698094;81;20303;-81
2022/01/10 11:27:34;;;;;;;;;;;;;;;2.80;66.87;100667.70;1699315;83;20171;-80
2022/01/10 11:30:20;;;;;;;;;;;;;;;2.78;67.28;100674.80;1699720;83;21110;-78
2022/01/10 11:33:08;;;;;;;;;;;;;;;2.96;66.67;100678.03;1709472;81;20630;-77
2022/01/10 11:35:44;;;;;;;;;;;;;;;2.90;66.55;100672.36;1695127;83;20162;-78
2022/01/10 11:38:21;;;;;;;;;;;;;;;2.86;65.64;100688.20;1699634;82;21185;-78
2022/01/10 11:40:48;;;;;;;;;;;;;;;2.97;66.22;100684.11;1706849;81;20529;-78
2022/01/10 11:43:41;;;;;;;;;;;;;;;2.90;65.54;100690.63;1698750;83;20997;-80
2022/01/10 11:46:37;;;;;;;;;;;;;;;3.03;65.83;100691.53;1709660;83;20128;-80
2022/01/10 11:49:18;;;;;;;;;;;;;;;3.09;65.21;100692.94;1705167;81;20334;-78
2022/01/10 11:51:50;;;;;;;;;;;;;;;3.22;65.01;100699.91;1700572;83;20484;-79
2022/01/10 11:54:38;;;;;;;;;;;;;;;3.29;64.65;100696.92;1704664;82;20178;-78
2022/01/10 11:57:08;;;;;;;;;;;;;;;3.22;63.86;100699.91;1697189;83;21355;-80
2022/01/10 11:59:42;;;;;;;;;;;;;;;3.31;63.83;100700.27;1703517;83;20187;-78
2022/01/10 12:02:11;;;;;;;;;;;;;;;3.40;63.59;100704.91;1706629;81;20475;-79
2022/01/10 12:04:39;;;;;;;;;;;;;;;3.30;63.22;100706.44;1704797;83;20238;-77
2022/01/10 12:07:06;;;;;;;;;;;;;;;3.32;62.99;100707.17;1706339;83;20191;-81
2022/01/10 12:09:32;;;;;;;;;;;;;;;3.37;62.91;100712.94;1707530;81;21361;-75
2022/01/10 12:11:59;;;;;;;;;;;;;;;3.45;63.06;100713.32;1715807;81;20215;-77
2022/01/10 12:14:25;;;;;;;;;;;;;;;3.39;62.28;100713.22;1698831;83;20182;-77
2022/01/10 12:16:51;;;;;;;;;;;;;;;3.64;62.85;100714.77;1694435;83;20925;-78
2022/01/10 12:19:17;;;;;;;;;;;;;;;3.56;62.37;100721.30;1693909;83;20185;-77
2022/01/10 12:21:43;;;;;;;;;;;;;;;3.69;62.29;100731.80;1699316;83;21118;-77
2022/01/10 12:24:09;;;;;;;;;;;;;;;3.73;61.55;100731.98;1704486;83;20229;-77
2022/01/10 12:26:35;;;;;;;;;;;;;;;3.62;61.90;100737.52;1700135;83;20283;-76
2022/01/10 12:29:02;;;;;;;;;;;;;;;3.54;61.85;100740.16;1709654;83;20183;-76
2022/01/10 12:31:29;;;;;;;;;;;;;;;3.42;61.70;100750.06;1712563;82;20466;-78
2022/01/10 12:33:55;;;;;;;;;;;;;;;3.65;61.73;100748.63;1693866;83;21259;-78
2022/01/10 12:36:22;;;;;;;;;;;;;;;3.73;61.24;100755.98;1695650;83;20191;-76
2022/01/10 12:38:50;;;;;;;;;;;;;;;3.68;61.07;100763.24;1701740;83;20240;-76
2022/01/10 12:41:15;;;;;;;;;;;;;;;3.54;60.91;100763.66;1696565;83;20193;-78
2022/01/10 12:43:41;;;;;;;;;;;;;;;3.85;60.59;100765.63;1695524;83;20174;-76
2022/01/10 12:46:07;;;;;;;;;;;;;;;3.82;61.12;100764.98;1694361;83;21210;-75
2022/01/10 12:48:32;;;;;;;;;;;;;;;3.70;60.77;100769.23;1700232;83;20562;-75
2022/01/10 12:50:58;;;;;;;;;;;;;;;3.86;60.49;100767.78;1693742;83;20181;-77
2022/01/10 12:53:23;;;;;;;;;;;;;;;4.06;60.14;100773.05;1723132;81;20132;-75
2022/01/10 12:55:49;;;;;;;;;;;;;;;4.28;59.87;100769.39;1667274;83;20158;-76
2022/01/10 12:58:15;;;;;;;;;;;;;;;4.05;59.52;100780.50;1710604;81;21114;-77